sensor_id;sensor_type;location;lat;lon;timestamp;P1;durP1;ratioP1;P2;durP2;ratioP2
15858;SDS011;8029;52.202;7.308;2022-07-24T00:01:38;1.52;;;1.42;;
15858;SDS011;8029;52.202;7.308;2022-07-24T00:04:04;1.00;;;1.00;;
15858;SDS011;8029;52.202;7.308;2022-07-24T00:06:31;1.38;;;1.25;;
15858;SDS011;8029;52.202;7.308;2022-07-24T00:08:57;1.73;;;1.48;;
15858;SDS011;8029;52.202;7.308;2022-07-24T00:11:23;2.03;;;1.40;;
15858;SDS011;8029;52.202;7.308;2022-07-24T00:13:49;2.47;;;1.55;;
15858;SDS011;8029;52.202;7.308;2022-07-24T00:16:14;1.50;;;1.40;;
15858;SDS011;8029;52.202;7.308;2022-07-24T00:18:40;1.38;;;1.30;;
15858;SDS011;8029;52.202;7.308;2022-07-24T00:21:07;1.98;;;1.38;;
15858;SDS011;8029;52.202;7.308;2022-07-24T00:23:33;1.80;;;1.70;;
15858;SDS011;8029;52.202;7.308;2022-07-24T00:25:59;1.48;;;1.38;;
15858;SDS011;8029;52.202;7.308;2022-07-24T00:28:25;3.22;;;1.92;;
15858;SDS011;8029;52.202;7.308;2022-07-24T00:30:51;1.27;;;1.25;;
15858;SDS011;8029;52.202;7.308;2022-07-24T00:33:17;2.10;;;1.40;;
15858;SDS011;8029;52.202;7.308;2022-07-24T00:35:43;1.33;;;1.23;;
15858;SDS011;8029;52.202;7.308;2022-07-24T00:38:09;1.75;;;1.35;;
15858;SDS011;8029;52.202;7.308;2022-07-24T00:40:36;2.00;;;1.80;;
15858;SDS011;8029;52.202;7.308;2022-07-24T00:43:02;1.27;;;1.17;;
15858;SDS011;8029;52.202;7.308;2022-07-24T00:45:29;1.77;;;1.60;;
15858;SDS011;8029;52.202;7.308;2022-07-24T00:47:55;1.27;;;1.17;;
15858;SDS011;8029;52.202;7.308;2022-07-24T00:50:21;1.02;;;1.02;;
15858;SDS011;8029;52.202;7.308;2022-07-24T00:52:47;1.05;;;1.05;;
15858;SDS011;8029;52.202;7.308;2022-07-24T00:55:14;1.30;;;1.20;;
15858;SDS011;8029;52.202;7.308;2022-07-24T00:57:40;3.30;;;1.13;;
15858;SDS011;8029;52.202;7.308;2022-07-24T01:00:09;1.27;;;1.17;;
15858;SDS011;8029;52.202;7.308;2022-07-24T01:02:38;3.03;;;1.45;;
15858;SDS011;8029;52.202;7.308;2022-07-24T01:05:04;1.02;;;1.02;;
15858;SDS011;8029;52.202;7.308;2022-07-24T01:07:30;1.40;;;1.33;;
15858;SDS011;8029;52.202;7.308;2022-07-24T01:09:56;3.03;;;1.75;;
15858;SDS011;8029;52.202;7.308;2022-07-24T01:12:22;1.88;;;1.30;;
15858;SDS011;8029;52.202;7.308;2022-07-24T01:14:48;1.70;;;1.60;;
15858;SDS011;8029;52.202;7.308;2022-07-24T01:17:14;1.83;;;1.65;;
15858;SDS011;8029;52.202;7.308;2022-07-24T01:19:40;2.13;;;1.63;;
15858;SDS011;8029;52.202;7.308;2022-07-24T01:22:06;1.52;;;1.42;;
15858;SDS011;8029;52.202;7.308;2022-07-24T01:24:32;2.25;;;1.90;;
15858;SDS011;8029;52.202;7.308;2022-07-24T01:26:58;1.40;;;1.30;;
15858;SDS011;8029;52.202;7.308;2022-07-24T01:29:24;1.40;;;1.30;;
15858;SDS011;8029;52.202;7.308;2022-07-24T01:31:50;4.47;;;1.70;;
15858;SDS011;8029;52.202;7.308;2022-07-24T01:34:16;1.27;;;1.17;;
15858;SDS011;8029;52.202;7.308;2022-07-24T01:36:42;1.67;;;1.40;;
15858;SDS011;8029;52.202;7.308;2022-07-24T01:39:08;2.35;;;1.75;;
15858;SDS011;8029;52.202;7.308;2022-07-24T01:41:35;1.63;;;1.52;;
15858;SDS011;8029;52.202;7.308;2022-07-24T01:44:00;1.40;;;0.75;;
15858;SDS011;8029;52.202;7.308;2022-07-24T01:46:27;2.85;;;1.48;;
15858;SDS011;8029;52.202;7.308;2022-07-24T01:48:53;2.15;;;1.95;;
15858;SDS011;8029;52.202;7.308;2022-07-24T01:51:19;1.23;;;1.10;;
15858;SDS011;8029;52.202;7.308;2022-07-24T01:53:45;1.67;;;1.58;;
15858;SDS011;8029;52.202;7.308;2022-07-24T01:56:11;1.77;;;1.40;;
15858;SDS011;8029;52.202;7.308;2022-07-24T01:58:37;1.50;;;1.40;;
15858;SDS011;8029;52.202;7.308;2022-07-24T02:01:04;1.88;;;1.70;;
15858;SDS011;8029;52.202;7.308;2022-07-24T02:03:30;1.02;;;1.02;;
15858;SDS011;8029;52.202;7.308;2022-07-24T02:05:56;1.63;;;1.52;;
15858;SDS011;8029;52.202;7.308;2022-07-24T02:08:23;1.65;;;1.33;;
15858;SDS011;8029;52.202;7.308;2022-07-24T02:10:49;1.75;;;1.50;;
15858;SDS011;8029;52.202;7.308;2022-07-24T02:13:15;1.48;;;1.38;;
15858;SDS011;8029;52.202;7.308;2022-07-24T02:15:41;2.33;;;1.95;;
15858;SDS011;8029;52.202;7.308;2022-07-24T02:18:07;1.90;;;1.70;;
15858;SDS011;8029;52.202;7.308;2022-07-24T02:20:33;1.83;;;1.52;;
15858;SDS011;8029;52.202;7.308;2022-07-24T02:22:59;2.72;;;1.98;;
15858;SDS011;8029;52.202;7.308;2022-07-24T02:25:25;1.75;;;1.65;;
15858;SDS011;8029;52.202;7.308;2022-07-24T02:27:51;2.08;;;1.98;;
15858;SDS011;8029;52.202;7.308;2022-07-24T02:30:18;1.52;;;1.42;;
15858;SDS011;8029;52.202;7.308;2022-07-24T02:32:44;1.50;;;1.33;;
15858;SDS011;8029;52.202;7.308;2022-07-24T02:35:10;1.52;;;1.42;;
15858;SDS011;8029;52.202;7.308;2022-07-24T02:37:37;1.85;;;1.25;;
15858;SDS011;8029;52.202;7.308;2022-07-24T02:40:04;2.03;;;1.77;;
15858;SDS011;8029;52.202;7.308;2022-07-24T02:42:30;1.73;;;1.63;;
15858;SDS011;8029;52.202;7.308;2022-07-24T02:44:56;2.28;;;1.85;;
15858;SDS011;8029;52.202;7.308;2022-07-24T02:47:22;2.65;;;2.20;;
15858;SDS011;8029;52.202;7.308;2022-07-24T02:49:48;1.85;;;1.75;;
15858;SDS011;8029;52.202;7.308;2022-07-24T02:52:14;2.28;;;2.08;;
15858;SDS011;8029;52.202;7.308;2022-07-24T02:54:40;1.75;;;1.60;;
15858;SDS011;8029;52.202;7.308;2022-07-24T02:57:06;2.00;;;1.80;;
15858;SDS011;8029;52.202;7.308;2022-07-24T02:59:32;2.58;;;2.17;;
15858;SDS011;8029;52.202;7.308;2022-07-24T03:01:58;1.60;;;1.48;;
15858;SDS011;8029;52.202;7.308;2022-07-24T03:04:24;3.30;;;2.05;;
15858;SDS011;8029;52.202;7.308;2022-07-24T03:06:50;1.50;;;1.40;;
15858;SDS011;8029;52.202;7.308;2022-07-24T03:09:16;2.10;;;1.90;;
15858;SDS011;8029;52.202;7.308;2022-07-24T03:11:42;2.78;;;2.05;;
15858;SDS011;8029;52.202;7.308;2022-07-24T03:14:08;2.22;;;2.03;;
15858;SDS011;8029;52.202;7.308;2022-07-24T03:16:34;2.90;;;2.60;;
15858;SDS011;8029;52.202;7.308;2022-07-24T03:19:02;2.50;;;2.30;;
15858;SDS011;8029;52.202;7.308;2022-07-24T03:21:28;2.92;;;2.47;;
15858;SDS011;8029;52.202;7.308;2022-07-24T03:23:54;4.38;;;2.47;;
15858;SDS011;8029;52.202;7.308;2022-07-24T03:26:20;2.42;;;2.22;;
15858;SDS011;8029;52.202;7.308;2022-07-24T03:28:46;2.83;;;2.28;;
15858;SDS011;8029;52.202;7.308;2022-07-24T03:31:11;2.80;;;2.60;;
15858;SDS011;8029;52.202;7.308;2022-07-24T03:33:37;12.45;;;2.40;;
15858;SDS011;8029;52.202;7.308;2022-07-24T03:36:03;2.08;;;1.80;;
15858;SDS011;8029;52.202;7.308;2022-07-24T03:38:29;1.73;;;1.63;;
15858;SDS011;8029;52.202;7.308;2022-07-24T03:40:55;3.28;;;2.33;;
15858;SDS011;8029;52.202;7.308;2022-07-24T03:43:21;2.15;;;1.92;;
15858;SDS011;8029;52.202;7.308;2022-07-24T03:45:47;3.15;;;2.60;;
15858;SDS011;8029;52.202;7.308;2022-07-24T03:48:13;2.38;;;2.17;;
15858;SDS011;8029;52.202;7.308;2022-07-24T03:50:40;2.72;;;2.53;;
15858;SDS011;8029;52.202;7.308;2022-07-24T03:53:06;2.28;;;2.15;;
15858;SDS011;8029;52.202;7.308;2022-07-24T03:55:32;1.92;;;1.83;;
15858;SDS011;8029;52.202;7.308;2022-07-24T03:57:57;2.40;;;2.20;;
15858;SDS011;8029;52.202;7.308;2022-07-24T04:00:23;2.60;;;2.38;;
15858;SDS011;8029;52.202;7.308;2022-07-24T04:02:49;2.42;;;2.22;;
15858;SDS011;8029;52.202;7.308;2022-07-24T04:05:15;5.13;;;2.53;;
15858;SDS011;8029;52.202;7.308;2022-07-24T04:07:41;3.13;;;2.38;;
15858;SDS011;8029;52.202;7.308;2022-07-24T04:10:07;4.97;;;2.75;;
15858;SDS011;8029;52.202;7.308;2022-07-24T04:12:34;3.28;;;2.30;;
15858;SDS011;8029;52.202;7.308;2022-07-24T04:15:00;3.22;;;2.33;;
15858;SDS011;8029;52.202;7.308;2022-07-24T04:17:26;2.78;;;2.58;;
15858;SDS011;8029;52.202;7.308;2022-07-24T04:19:52;1.88;;;1.77;;
15858;SDS011;8029;52.202;7.308;2022-07-24T04:22:18;2.35;;;2.15;;
15858;SDS011;8029;52.202;7.308;2022-07-24T04:24:44;2.10;;;1.95;;
15858;SDS011;8029;52.202;7.308;2022-07-24T04:27:09;3.08;;;2.78;;
15858;SDS011;8029;52.202;7.308;2022-07-24T04:29:35;2.83;;;2.33;;
15858;SDS011;8029;52.202;7.308;2022-07-24T04:32:01;2.22;;;2.03;;
15858;SDS011;8029;52.202;7.308;2022-07-24T04:34:28;6.28;;;3.33;;
15858;SDS011;8029;52.202;7.308;2022-07-24T04:36:53;2.20;;;2.10;;
15858;SDS011;8029;52.202;7.308;2022-07-24T04:39:19;2.63;;;2.42;;
15858;SDS011;8029;52.202;7.308;2022-07-24T04:41:45;2.88;;;2.38;;
15858;SDS011;8029;52.202;7.308;2022-07-24T04:44:11;2.75;;;2.55;;
15858;SDS011;8029;52.202;7.308;2022-07-24T04:46:37;3.67;;;3.30;;
15858;SDS011;8029;52.202;7.308;2022-07-24T04:49:03;3.10;;;1.95;;
15858;SDS011;8029;52.202;7.308;2022-07-24T04:51:29;2.22;;;2.13;;
15858;SDS011;8029;52.202;7.308;2022-07-24T04:53:55;3.75;;;2.30;;
15858;SDS011;8029;52.202;7.308;2022-07-24T04:56:21;3.05;;;2.25;;
15858;SDS011;8029;52.202;7.308;2022-07-24T04:58:47;2.38;;;2.25;;
15858;SDS011;8029;52.202;7.308;2022-07-24T05:01:13;4.07;;;3.45;;
15858;SDS011;8029;52.202;7.308;2022-07-24T05:03:39;4.10;;;3.03;;
15858;SDS011;8029;52.202;7.308;2022-07-24T05:06:06;2.13;;;1.95;;
15858;SDS011;8029;52.202;7.308;2022-07-24T05:08:32;3.17;;;2.88;;
15858;SDS011;8029;52.202;7.308;2022-07-24T05:10:58;3.13;;;2.50;;
15858;SDS011;8029;52.202;7.308;2022-07-24T05:13:24;2.50;;;2.30;;
15858;SDS011;8029;52.202;7.308;2022-07-24T05:15:49;3.00;;;2.70;;
15858;SDS011;8029;52.202;7.308;2022-07-24T05:18:15;11.05;;;2.55;;
15858;SDS011;8029;52.202;7.308;2022-07-24T05:20:41;2.80;;;2.60;;
15858;SDS011;8029;52.202;7.308;2022-07-24T05:23:08;2.70;;;2.50;;
15858;SDS011;8029;52.202;7.308;2022-07-24T05:25:34;2.33;;;2.13;;
15858;SDS011;8029;52.202;7.308;2022-07-24T05:28:00;2.63;;;2.42;;
15858;SDS011;8029;52.202;7.308;2022-07-24T05:30:26;2.00;;;1.90;;
15858;SDS011;8029;52.202;7.308;2022-07-24T05:32:52;2.75;;;2.55;;
15858;SDS011;8029;52.202;7.308;2022-07-24T05:35:18;4.22;;;2.58;;
15858;SDS011;8029;52.202;7.308;2022-07-24T05:37:44;3.00;;;2.42;;
15858;SDS011;8029;52.202;7.308;2022-07-24T05:40:10;3.58;;;3.22;;
15858;SDS011;8029;52.202;7.308;2022-07-24T05:42:36;2.85;;;2.65;;
15858;SDS011;8029;52.202;7.308;2022-07-24T05:45:03;2.80;;;2.60;;
15858;SDS011;8029;52.202;7.308;2022-07-24T05:47:34;2.78;;;2.53;;
15858;SDS011;8029;52.202;7.308;2022-07-24T05:50:00;3.65;;;2.42;;
15858;SDS011;8029;52.202;7.308;2022-07-24T05:52:26;3.22;;;2.92;;
15858;SDS011;8029;52.202;7.308;2022-07-24T05:54:52;4.70;;;2.72;;
15858;SDS011;8029;52.202;7.308;2022-07-24T05:57:18;2.65;;;2.45;;
15858;SDS011;8029;52.202;7.308;2022-07-24T05:59:44;3.38;;;3.08;;
15858;SDS011;8029;52.202;7.308;2022-07-24T06:02:10;5.60;;;3.65;;
15858;SDS011;8029;52.202;7.308;2022-07-24T06:04:36;3.35;;;3.00;;
15858;SDS011;8029;52.202;7.308;2022-07-24T06:07:06;3.40;;;3.10;;
15858;SDS011;8029;52.202;7.308;2022-07-24T06:09:32;2.58;;;2.38;;
15858;SDS011;8029;52.202;7.308;2022-07-24T06:11:58;3.63;;;3.33;;
15858;SDS011;8029;52.202;7.308;2022-07-24T06:14:24;2.83;;;2.63;;
15858;SDS011;8029;52.202;7.308;2022-07-24T06:16:50;2.90;;;2.70;;
15858;SDS011;8029;52.202;7.308;2022-07-24T06:19:16;6.22;;;3.42;;
15858;SDS011;8029;52.202;7.308;2022-07-24T06:21:42;6.80;;;3.50;;
15858;SDS011;8029;52.202;7.308;2022-07-24T06:24:08;4.28;;;3.67;;
15858;SDS011;8029;52.202;7.308;2022-07-24T06:26:34;3.75;;;3.30;;
15858;SDS011;8029;52.202;7.308;2022-07-24T06:29:00;3.90;;;3.50;;
15858;SDS011;8029;52.202;7.308;2022-07-24T06:31:26;3.78;;;3.35;;
15858;SDS011;8029;52.202;7.308;2022-07-24T06:33:52;4.05;;;3.00;;
15858;SDS011;8029;52.202;7.308;2022-07-24T06:36:18;4.55;;;3.35;;
15858;SDS011;8029;52.202;7.308;2022-07-24T06:38:44;3.40;;;3.10;;
15858;SDS011;8029;52.202;7.308;2022-07-24T06:41:10;5.53;;;2.80;;
15858;SDS011;8029;52.202;7.308;2022-07-24T06:43:36;3.78;;;2.88;;
15858;SDS011;8029;52.202;7.308;2022-07-24T06:46:02;3.60;;;3.25;;
15858;SDS011;8029;52.202;7.308;2022-07-24T06:48:29;3.05;;;2.85;;
15858;SDS011;8029;52.202;7.308;2022-07-24T06:50:55;4.13;;;2.40;;
15858;SDS011;8029;52.202;7.308;2022-07-24T06:53:21;2.00;;;1.90;;
15858;SDS011;8029;52.202;7.308;2022-07-24T06:55:48;2.13;;;2.03;;
15858;SDS011;8029;52.202;7.308;2022-07-24T06:58:17;5.25;;;2.80;;
15858;SDS011;8029;52.202;7.308;2022-07-24T07:00:43;2.22;;;2.13;;
15858;SDS011;8029;52.202;7.308;2022-07-24T07:03:09;3.80;;;2.95;;
15858;SDS011;8029;52.202;7.308;2022-07-24T07:05:35;3.20;;;2.90;;
15858;SDS011;8029;52.202;7.308;2022-07-24T07:08:01;2.05;;;1.95;;
15858;SDS011;8029;52.202;7.308;2022-07-24T07:10:27;2.50;;;2.30;;
15858;SDS011;8029;52.202;7.308;2022-07-24T07:12:53;2.05;;;1.90;;
15858;SDS011;8029;52.202;7.308;2022-07-24T07:15:19;2.20;;;2.10;;
15858;SDS011;8029;52.202;7.308;2022-07-24T07:17:45;3.40;;;2.53;;
15858;SDS011;8029;52.202;7.308;2022-07-24T07:20:11;3.38;;;2.50;;
15858;SDS011;8029;52.202;7.308;2022-07-24T07:22:38;3.03;;;2.45;;
15858;SDS011;8029;52.202;7.308;2022-07-24T07:25:04;2.65;;;2.10;;
15858;SDS011;8029;52.202;7.308;2022-07-24T07:27:30;1.40;;;1.30;;
15858;SDS011;8029;52.202;7.308;2022-07-24T07:29:56;2.85;;;2.40;;
15858;SDS011;8029;52.202;7.308;2022-07-24T07:32:22;4.63;;;2.97;;
15858;SDS011;8029;52.202;7.308;2022-07-24T07:34:48;2.28;;;2.13;;
15858;SDS011;8029;52.202;7.308;2022-07-24T07:37:15;2.15;;;1.95;;
15858;SDS011;8029;52.202;7.308;2022-07-24T07:39:41;1.73;;;1.60;;
15858;SDS011;8029;52.202;7.308;2022-07-24T07:42:07;2.70;;;1.92;;
15858;SDS011;8029;52.202;7.308;2022-07-24T07:44:33;1.85;;;1.65;;
15858;SDS011;8029;52.202;7.308;2022-07-24T07:46:59;1.95;;;1.83;;
15858;SDS011;8029;52.202;7.308;2022-07-24T07:49:26;4.20;;;2.42;;
15858;SDS011;8029;52.202;7.308;2022-07-24T07:51:52;3.97;;;3.33;;
15858;SDS011;8029;52.202;7.308;2022-07-24T07:54:18;3.95;;;2.53;;
15858;SDS011;8029;52.202;7.308;2022-07-24T07:56:45;2.40;;;2.20;;
15858;SDS011;8029;52.202;7.308;2022-07-24T07:59:11;3.33;;;2.38;;
15858;SDS011;8029;52.202;7.308;2022-07-24T08:01:37;3.55;;;3.25;;
15858;SDS011;8029;52.202;7.308;2022-07-24T08:04:03;2.92;;;2.70;;
15858;SDS011;8029;52.202;7.308;2022-07-24T08:06:29;3.17;;;2.33;;
15858;SDS011;8029;52.202;7.308;2022-07-24T08:08:55;2.70;;;2.50;;
15858;SDS011;8029;52.202;7.308;2022-07-24T08:11:21;4.25;;;3.22;;
15858;SDS011;8029;52.202;7.308;2022-07-24T08:13:47;4.20;;;3.20;;
15858;SDS011;8029;52.202;7.308;2022-07-24T08:16:13;16.77;;;3.50;;
15858;SDS011;8029;52.202;7.308;2022-07-24T08:18:39;3.92;;;3.55;;
15858;SDS011;8029;52.202;7.308;2022-07-24T08:21:05;3.38;;;3.08;;
15858;SDS011;8029;52.202;7.308;2022-07-24T08:23:31;3.83;;;3.53;;
15858;SDS011;8029;52.202;7.308;2022-07-24T08:25:57;4.15;;;3.05;;
15858;SDS011;8029;52.202;7.308;2022-07-24T08:28:23;9.07;;;3.55;;
15858;SDS011;8029;52.202;7.308;2022-07-24T08:30:49;5.38;;;3.72;;
15858;SDS011;8029;52.202;7.308;2022-07-24T08:33:15;4.15;;;3.40;;
15858;SDS011;8029;52.202;7.308;2022-07-24T08:35:41;7.43;;;4.40;;
15858;SDS011;8029;52.202;7.308;2022-07-24T08:38:07;4.70;;;3.28;;
15858;SDS011;8029;52.202;7.308;2022-07-24T08:40:34;3.67;;;3.00;;
15858;SDS011;8029;52.202;7.308;2022-07-24T08:43:00;5.05;;;3.63;;
15858;SDS011;8029;52.202;7.308;2022-07-24T08:45:27;5.85;;;4.22;;
15858;SDS011;8029;52.202;7.308;2022-07-24T08:47:53;7.63;;;4.75;;
15858;SDS011;8029;52.202;7.308;2022-07-24T08:50:21;3.90;;;3.10;;
15858;SDS011;8029;52.202;7.308;2022-07-24T08:52:47;4.55;;;4.15;;
15858;SDS011;8029;52.202;7.308;2022-07-24T08:55:13;5.97;;;3.83;;
15858;SDS011;8029;52.202;7.308;2022-07-24T08:57:40;8.93;;;4.03;;
15858;SDS011;8029;52.202;7.308;2022-07-24T09:00:06;3.65;;;3.10;;
15858;SDS011;8029;52.202;7.308;2022-07-24T09:02:32;5.25;;;3.33;;
15858;SDS011;8029;52.202;7.308;2022-07-24T09:04:59;3.85;;;3.22;;
15858;SDS011;8029;52.202;7.308;2022-07-24T09:07:26;4.93;;;3.85;;
15858;SDS011;8029;52.202;7.308;2022-07-24T09:10:06;5.00;;;4.00;;
15858;SDS011;8029;52.202;7.308;2022-07-24T09:12:33;5.03;;;4.53;;
15858;SDS011;8029;52.202;7.308;2022-07-24T09:14:59;4.07;;;2.47;;
15858;SDS011;8029;52.202;7.308;2022-07-24T09:17:26;5.95;;;4.53;;
15858;SDS011;8029;52.202;7.308;2022-07-24T09:19:59;4.70;;;3.67;;
15858;SDS011;8029;52.202;7.308;2022-07-24T09:27:29;3.63;;;3.33;;
15858;SDS011;8029;52.202;7.308;2022-07-24T09:29:55;4.10;;;3.17;;
15858;SDS011;8029;52.202;7.308;2022-07-24T09:32:22;4.65;;;3.20;;
15858;SDS011;8029;52.202;7.308;2022-07-24T09:34:50;4.65;;;3.42;;
15858;SDS011;8029;52.202;7.308;2022-07-24T09:37:16;3.70;;;3.35;;
15858;SDS011;8029;52.202;7.308;2022-07-24T09:39:42;4.35;;;3.35;;
15858;SDS011;8029;52.202;7.308;2022-07-24T09:42:09;6.70;;;3.60;;
15858;SDS011;8029;52.202;7.308;2022-07-24T09:44:35;3.50;;;2.75;;
15858;SDS011;8029;52.202;7.308;2022-07-24T09:47:05;3.65;;;3.35;;
15858;SDS011;8029;52.202;7.308;2022-07-24T09:49:31;8.02;;;3.03;;
15858;SDS011;8029;52.202;7.308;2022-07-24T09:52:12;4.80;;;3.15;;
15858;SDS011;8029;52.202;7.308;2022-07-24T09:54:39;4.10;;;3.33;;
15858;SDS011;8029;52.202;7.308;2022-07-24T09:59:55;3.55;;;3.25;;
15858;SDS011;8029;52.202;7.308;2022-07-24T10:02:22;3.30;;;3.00;;
15858;SDS011;8029;52.202;7.308;2022-07-24T10:04:49;5.65;;;3.30;;
15858;SDS011;8029;52.202;7.308;2022-07-24T10:07:16;5.75;;;3.80;;
15858;SDS011;8029;52.202;7.308;2022-07-24T10:09:43;12.15;;;3.78;;
15858;SDS011;8029;52.202;7.308;2022-07-24T10:12:17;3.35;;;3.05;;
15858;SDS011;8029;52.202;7.308;2022-07-24T10:14:43;3.25;;;2.53;;
15858;SDS011;8029;52.202;7.308;2022-07-24T10:17:10;5.90;;;3.67;;
15858;SDS011;8029;52.202;7.308;2022-07-24T10:22:08;3.47;;;2.20;;
15858;SDS011;8029;52.202;7.308;2022-07-24T10:27:27;4.88;;;2.78;;
15858;SDS011;8029;52.202;7.308;2022-07-24T10:29:54;3.08;;;2.40;;
15858;SDS011;8029;52.202;7.308;2022-07-24T10:32:21;3.78;;;2.88;;
15858;SDS011;8029;52.202;7.308;2022-07-24T10:40:01;5.18;;;3.03;;
15858;SDS011;8029;52.202;7.308;2022-07-24T10:42:27;3.88;;;2.92;;
15858;SDS011;8029;52.202;7.308;2022-07-24T10:45:13;3.53;;;2.65;;
15858;SDS011;8029;52.202;7.308;2022-07-24T10:47:40;4.60;;;3.17;;
15858;SDS011;8029;52.202;7.308;2022-07-24T10:50:06;3.60;;;2.95;;
15858;SDS011;8029;52.202;7.308;2022-07-24T10:52:33;3.80;;;2.78;;
15858;SDS011;8029;52.202;7.308;2022-07-24T11:02:55;3.00;;;2.35;;
15858;SDS011;8029;52.202;7.308;2022-07-24T11:05:22;12.90;;;2.97;;
15858;SDS011;8029;52.202;7.308;2022-07-24T11:10:57;2.85;;;2.55;;
15858;SDS011;8029;52.202;7.308;2022-07-24T11:13:45;3.03;;;1.90;;
15858;SDS011;8029;52.202;7.308;2022-07-24T11:18:36;4.30;;;2.65;;
15858;SDS011;8029;52.202;7.308;2022-07-24T11:21:02;2.28;;;2.10;;
15858;SDS011;8029;52.202;7.308;2022-07-24T11:23:28;2.35;;;2.17;;
15858;SDS011;8029;52.202;7.308;2022-07-24T11:28:40;3.95;;;2.55;;
15858;SDS011;8029;52.202;7.308;2022-07-24T11:31:06;6.30;;;2.15;;
15858;SDS011;8029;52.202;7.308;2022-07-24T11:33:35;2.75;;;2.55;;
15858;SDS011;8029;52.202;7.308;2022-07-24T11:36:07;4.47;;;2.08;;
15858;SDS011;8029;52.202;7.308;2022-07-24T11:38:33;3.38;;;2.38;;
15858;SDS011;8029;52.202;7.308;2022-07-24T11:41:05;3.13;;;2.53;;
15858;SDS011;8029;52.202;7.308;2022-07-24T11:43:33;3.10;;;2.42;;
15858;SDS011;8029;52.202;7.308;2022-07-24T11:45:59;2.53;;;2.33;;
15858;SDS011;8029;52.202;7.308;2022-07-24T11:48:25;19.60;;;3.05;;
15858;SDS011;8029;52.202;7.308;2022-07-24T11:51:02;2.55;;;2.00;;
15858;SDS011;8029;52.202;7.308;2022-07-24T11:53:28;2.35;;;1.77;;
15858;SDS011;8029;52.202;7.308;2022-07-24T11:56:03;3.10;;;2.08;;
15858;SDS011;8029;52.202;7.308;2022-07-24T11:58:36;1.95;;;1.85;;
15858;SDS011;8029;52.202;7.308;2022-07-24T12:01:02;3.83;;;2.53;;
15858;SDS011;8029;52.202;7.308;2022-07-24T12:03:28;1.90;;;1.70;;
15858;SDS011;8029;52.202;7.308;2022-07-24T12:05:54;1.80;;;1.70;;
15858;SDS011;8029;52.202;7.308;2022-07-24T12:08:21;2.20;;;2.00;;
15858;SDS011;8029;52.202;7.308;2022-07-24T12:10:55;10.15;;;2.55;;
15858;SDS011;8029;52.202;7.308;2022-07-24T12:13:21;2.08;;;1.92;;
15858;SDS011;8029;52.202;7.308;2022-07-24T12:15:47;1.60;;;1.50;;
15858;SDS011;8029;52.202;7.308;2022-07-24T12:18:13;2.25;;;1.85;;
15858;SDS011;8029;52.202;7.308;2022-07-24T12:20:41;1.67;;;1.55;;
15858;SDS011;8029;52.202;7.308;2022-07-24T12:23:09;3.85;;;2.30;;
15858;SDS011;8029;52.202;7.308;2022-07-24T12:25:35;0.90;;;0.90;;
15858;SDS011;8029;52.202;7.308;2022-07-24T12:28:03;1.60;;;1.48;;
15858;SDS011;8029;52.202;7.308;2022-07-24T12:30:30;2.60;;;2.13;;
15858;SDS011;8029;52.202;7.308;2022-07-24T12:32:58;2.13;;;1.70;;
15858;SDS011;8029;52.202;7.308;2022-07-24T12:35:24;2.88;;;1.83;;
15858;SDS011;8029;52.202;7.308;2022-07-24T12:37:51;2.25;;;2.00;;
15858;SDS011;8029;52.202;7.308;2022-07-24T12:40:28;3.80;;;2.30;;
15858;SDS011;8029;52.202;7.308;2022-07-24T12:42:58;1.48;;;1.38;;
15858;SDS011;8029;52.202;7.308;2022-07-24T12:45:24;1.60;;;1.50;;
15858;SDS011;8029;52.202;7.308;2022-07-24T12:50:35;2.47;;;1.23;;
15858;SDS011;8029;52.202;7.308;2022-07-24T12:53:05;1.60;;;1.42;;
15858;SDS011;8029;52.202;7.308;2022-07-24T12:55:31;2.17;;;1.65;;
15858;SDS011;8029;52.202;7.308;2022-07-24T12:58:01;1.65;;;1.20;;
15858;SDS011;8029;52.202;7.308;2022-07-24T13:00:27;1.40;;;1.20;;
15858;SDS011;8029;52.202;7.308;2022-07-24T13:02:53;2.37;;;1.70;;
15858;SDS011;8029;52.202;7.308;2022-07-24T13:08:04;0.98;;;0.98;;
15858;SDS011;8029;52.202;7.308;2022-07-24T13:10:30;1.33;;;1.05;;
15858;SDS011;8029;52.202;7.308;2022-07-24T13:12:56;1.23;;;1.20;;
15858;SDS011;8029;52.202;7.308;2022-07-24T13:15:22;1.52;;;1.42;;
15858;SDS011;8029;52.202;7.308;2022-07-24T13:17:48;1.60;;;1.50;;
15858;SDS011;8029;52.202;7.308;2022-07-24T13:20:14;2.35;;;2.00;;
15858;SDS011;8029;52.202;7.308;2022-07-24T13:22:40;1.65;;;1.30;;
15858;SDS011;8029;52.202;7.308;2022-07-24T13:25:06;0.98;;;0.98;;
15858;SDS011;8029;52.202;7.308;2022-07-24T13:27:32;1.55;;;1.40;;
15858;SDS011;8029;52.202;7.308;2022-07-24T13:29:58;1.85;;;1.70;;
15858;SDS011;8029;52.202;7.308;2022-07-24T13:32:24;1.15;;;1.02;;
15858;SDS011;8029;52.202;7.308;2022-07-24T13:34:50;2.22;;;1.33;;
15858;SDS011;8029;52.202;7.308;2022-07-24T13:37:17;8.45;;;1.40;;
15858;SDS011;8029;52.202;7.308;2022-07-24T13:39:43;1.85;;;1.30;;
15858;SDS011;8029;52.202;7.308;2022-07-24T13:42:09;6.95;;;1.20;;
15858;SDS011;8029;52.202;7.308;2022-07-24T13:44:35;3.30;;;1.35;;
15858;SDS011;8029;52.202;7.308;2022-07-24T13:47:02;0.88;;;0.88;;
15858;SDS011;8029;52.202;7.308;2022-07-24T13:49:28;3.70;;;1.08;;
15858;SDS011;8029;52.202;7.308;2022-07-24T13:51:54;1.15;;;1.08;;
15858;SDS011;8029;52.202;7.308;2022-07-24T13:54:20;1.40;;;1.08;;
15858;SDS011;8029;52.202;7.308;2022-07-24T13:56:46;1.63;;;1.52;;
15858;SDS011;8029;52.202;7.308;2022-07-24T13:59:12;2.13;;;1.75;;
15858;SDS011;8029;52.202;7.308;2022-07-24T14:01:38;1.13;;;1.02;;
15858;SDS011;8029;52.202;7.308;2022-07-24T14:04:04;1.27;;;1.17;;
15858;SDS011;8029;52.202;7.308;2022-07-24T14:06:33;1.20;;;1.10;;
15858;SDS011;8029;52.202;7.308;2022-07-24T14:09:00;1.23;;;1.13;;
15858;SDS011;8029;52.202;7.308;2022-07-24T14:11:26;0.90;;;0.90;;
15858;SDS011;8029;52.202;7.308;2022-07-24T14:13:52;0.75;;;0.75;;
15858;SDS011;8029;52.202;7.308;2022-07-24T14:16:18;1.83;;;1.30;;
15858;SDS011;8029;52.202;7.308;2022-07-24T14:18:45;1.58;;;1.48;;
15858;SDS011;8029;52.202;7.308;2022-07-24T14:21:11;2.70;;;1.42;;
15858;SDS011;8029;52.202;7.308;2022-07-24T14:23:37;1.27;;;0.98;;
15858;SDS011;8029;52.202;7.308;2022-07-24T14:26:03;1.55;;;1.38;;
15858;SDS011;8029;52.202;7.308;2022-07-24T14:28:30;1.88;;;1.45;;
15858;SDS011;8029;52.202;7.308;2022-07-24T14:30:56;1.58;;;1.35;;
15858;SDS011;8029;52.202;7.308;2022-07-24T14:33:22;1.38;;;1.25;;
15858;SDS011;8029;52.202;7.308;2022-07-24T14:35:48;9.85;;;2.17;;
15858;SDS011;8029;52.202;7.308;2022-07-24T14:38:14;2.33;;;1.30;;
15858;SDS011;8029;52.202;7.308;2022-07-24T14:40:41;1.75;;;0.70;;
15858;SDS011;8029;52.202;7.308;2022-07-24T14:43:07;2.28;;;1.65;;
15858;SDS011;8029;52.202;7.308;2022-07-24T14:45:33;3.40;;;1.80;;
15858;SDS011;8029;52.202;7.308;2022-07-24T14:47:59;1.88;;;0.98;;
15858;SDS011;8029;52.202;7.308;2022-07-24T14:50:25;1.08;;;1.05;;
15858;SDS011;8029;52.202;7.308;2022-07-24T14:52:51;1.45;;;1.35;;
15858;SDS011;8029;52.202;7.308;2022-07-24T14:55:16;0.85;;;0.85;;
15858;SDS011;8029;52.202;7.308;2022-07-24T14:57:42;1.08;;;1.00;;
15858;SDS011;8029;52.202;7.308;2022-07-24T15:00:08;1.67;;;1.08;;
15858;SDS011;8029;52.202;7.308;2022-07-24T15:02:35;1.67;;;1.13;;
15858;SDS011;8029;52.202;7.308;2022-07-24T15:05:01;1.85;;;1.45;;
15858;SDS011;8029;52.202;7.308;2022-07-24T15:07:27;2.20;;;1.10;;
15858;SDS011;8029;52.202;7.308;2022-07-24T15:09:53;1.48;;;1.38;;
15858;SDS011;8029;52.202;7.308;2022-07-24T15:12:19;1.35;;;1.25;;
15858;SDS011;8029;52.202;7.308;2022-07-24T15:14:45;4.85;;;1.48;;
15858;SDS011;8029;52.202;7.308;2022-07-24T15:17:11;4.88;;;0.98;;
15858;SDS011;8029;52.202;7.308;2022-07-24T15:19:37;4.30;;;1.20;;
15858;SDS011;8029;52.202;7.308;2022-07-24T15:22:03;1.30;;;1.13;;
15858;SDS011;8029;52.202;7.308;2022-07-24T15:24:29;1.25;;;0.98;;
15858;SDS011;8029;52.202;7.308;2022-07-24T15:26:55;1.25;;;1.15;;
15858;SDS011;8029;52.202;7.308;2022-07-24T15:29:21;1.15;;;1.13;;
15858;SDS011;8029;52.202;7.308;2022-07-24T15:31:47;2.03;;;1.77;;
15858;SDS011;8029;52.202;7.308;2022-07-24T15:34:13;0.93;;;0.85;;
15858;SDS011;8029;52.202;7.308;2022-07-24T15:36:39;0.90;;;0.90;;